sensor_id;sensor_type;location;lat;lon;timestamp;pressure;altitude;pressure_sealevel;temperature;humidity
51526;BME280;37611;51.794;21.590;2023-02-28T00:00:36;101414.36;;;-3.87;85.71
51526;BME280;37611;51.794;21.590;2023-02-28T00:04:50;101416.16;;;-3.94;86.36
51526;BME280;37611;51.794;21.590;2023-02-28T00:08:54;101409.97;;;-4.02;86.19
51526;BME280;37611;51.794;21.590;2023-02-28T00:13:01;101417.39;;;-4.05;86.22
51526;BME280;37611;51.794;21.590;2023-02-28T00:17:03;101418.62;;;-4.08;86.30
51526;BME280;37611;51.794;21.590;2023-02-28T00:21:08;101415.03;;;-4.08;86.65
51526;BME280;37611;51.794;21.590;2023-02-28T00:25:14;101416.06;;;-4.08;86.87
51526;BME280;37611;51.794;21.590;2023-02-28T00:29:16;101414.48;;;-4.06;86.92
51526;BME280;37611;51.794;21.590;2023-02-28T00:33:18;101417.34;;;-4.03;87.36
51526;BME280;37611;51.794;21.590;2023-02-28T00:37:20;101413.91;;;-4.02;87.45
51526;BME280;37611;51.794;21.590;2023-02-28T00:41:22;101418.20;;;-4.02;87.29
51526;BME280;37611;51.794;21.590;2023-02-28T00:45:24;101416.05;;;-4.08;87.56
51526;BME280;37611;51.794;21.590;2023-02-28T00:49:27;101411.03;;;-4.14;87.64
51526;BME280;37611;51.794;21.590;2023-02-28T00:53:29;101411.81;;;-4.21;87.84
51526;BME280;37611;51.794;21.590;2023-02-28T00:57:32;101410.44;;;-4.31;87.38
51526;BME280;37611;51.794;21.590;2023-02-28T01:01:34;101411.93;;;-4.40;87.82
51526;BME280;37611;51.794;21.590;2023-02-28T01:05:36;101412.38;;;-4.48;88.08
51526;BME280;37611;51.794;21.590;2023-02-28T01:09:38;101417.45;;;-4.55;87.89
51526;BME280;37611;51.794;21.590;2023-02-28T01:13:41;101417.77;;;-4.66;87.89
51526;BME280;37611;51.794;21.590;2023-02-28T01:17:42;101414.98;;;-4.75;88.09
51526;BME280;37611;51.794;21.590;2023-02-28T01:21:44;101416.05;;;-4.78;88.53
51526;BME280;37611;51.794;21.590;2023-02-28T01:25:46;101417.59;;;-4.78;88.78
51526;BME280;37611;51.794;21.590;2023-02-28T01:29:48;101417.21;;;-4.76;89.01
51526;BME280;37611;51.794;21.590;2023-02-28T01:33:50;101418.36;;;-4.73;89.30
51526;BME280;37611;51.794;21.590;2023-02-28T01:37:52;101417.59;;;-4.66;89.22
51526;BME280;37611;51.794;21.590;2023-02-28T01:41:53;101418.36;;;-4.60;89.58
51526;BME280;37611;51.794;21.590;2023-02-28T01:45:57;101416.09;;;-4.56;89.60
51526;BME280;37611;51.794;21.590;2023-02-28T01:50:01;101416.45;;;-4.58;89.72
51526;BME280;37611;51.794;21.590;2023-02-28T01:54:08;101416.77;;;-4.67;89.12
51526;BME280;37611;51.794;21.590;2023-02-28T01:58:15;101420.20;;;-4.83;89.43
51526;BME280;37611;51.794;21.590;2023-02-28T02:02:19;101417.73;;;-4.89;89.49
51526;BME280;37611;51.794;21.590;2023-02-28T02:06:29;101424.48;;;-4.96;89.55
51526;BME280;37611;51.794;21.590;2023-02-28T02:10:46;101422.88;;;-5.05;89.92
51526;BME280;37611;51.794;21.590;2023-02-28T02:15:16;101424.48;;;-5.10;90.21
51526;BME280;37611;51.794;21.590;2023-02-28T02:32:36;101429.44;;;-5.10;90.77
51526;BME280;37611;51.794;21.590;2023-02-28T02:36:49;101427.81;;;-5.04;91.10
51526;BME280;37611;51.794;21.590;2023-02-28T02:41:03;101424.81;;;-4.95;91.61
51526;BME280;37611;51.794;21.590;2023-02-28T02:45:12;101420.52;;;-4.93;91.77
51526;BME280;37611;51.794;21.590;2023-02-28T02:49:35;101426.55;;;-4.98;91.67
51526;BME280;37611;51.794;21.590;2023-02-28T02:53:51;101429.86;;;-5.03;91.56
51526;BME280;37611;51.794;21.590;2023-02-28T02:58:04;101433.85;;;-5.08;90.83
51526;BME280;37611;51.794;21.590;2023-02-28T03:02:11;101434.63;;;-5.17;90.84
51526;BME280;37611;51.794;21.590;2023-02-28T03:06:14;101438.30;;;-5.25;90.78
51526;BME280;37611;51.794;21.590;2023-02-28T03:10:37;101439.95;;;-5.36;90.96
51526;BME280;37611;51.794;21.590;2023-02-28T03:18:55;101441.84;;;-5.36;92.29
51526;BME280;37611;51.794;21.590;2023-02-28T03:27:08;101443.52;;;-5.19;93.21
51526;BME280;37611;51.794;21.590;2023-02-28T03:31:33;101452.34;;;-5.13;93.76
51526;BME280;37611;51.794;21.590;2023-02-28T03:35:43;101459.88;;;-5.16;93.60
51526;BME280;37611;51.794;21.590;2023-02-28T03:39:52;101453.78;;;-5.20;93.14
51526;BME280;37611;51.794;21.590;2023-02-28T03:43:59;101458.46;;;-5.25;93.19
51526;BME280;37611;51.794;21.590;2023-02-28T03:48:17;101457.83;;;-5.31;93.36
51526;BME280;37611;51.794;21.590;2023-02-28T03:52:24;101464.55;;;-5.37;93.01
51526;BME280;37611;51.794;21.590;2023-02-28T03:56:37;101464.63;;;-5.45;92.63
51526;BME280;37611;51.794;21.590;2023-02-28T04:00:46;101467.29;;;-5.56;93.28
51526;BME280;37611;51.794;21.590;2023-02-28T04:04:49;101465.97;;;-5.62;94.06
51526;BME280;37611;51.794;21.590;2023-02-28T04:08:52;101466.68;;;-5.64;93.58
51526;BME280;37611;51.794;21.590;2023-02-28T04:12:54;101465.98;;;-5.62;94.20
51526;BME280;37611;51.794;21.590;2023-02-28T04:16:56;101461.70;;;-5.60;94.21
51526;BME280;37611;51.794;21.590;2023-02-28T04:21:00;101467.08;;;-5.51;94.54
51526;BME280;37611;51.794;21.590;2023-02-28T04:25:02;101469.73;;;-5.44;94.43
51526;BME280;37611;51.794;21.590;2023-02-28T04:29:05;101470.75;;;-5.42;94.38
51526;BME280;37611;51.794;21.590;2023-02-28T04:33:07;101472.61;;;-5.40;94.84
51526;BME280;37611;51.794;21.590;2023-02-28T04:37:09;101471.28;;;-5.45;94.87
51526;BME280;37611;51.794;21.590;2023-02-28T04:41:12;101473.39;;;-5.52;94.58
51526;BME280;37611;51.794;21.590;2023-02-28T04:45:14;101479.77;;;-5.58;94.08
51526;BME280;37611;51.794;21.590;2023-02-28T04:49:16;101477.80;;;-5.68;93.67
51526;BME280;37611;51.794;21.590;2023-02-28T04:53:18;101479.95;;;-5.80;94.35
51526;BME280;37611;51.794;21.590;2023-02-28T04:57:20;101481.56;;;-5.87;93.98
51526;BME280;37611;51.794;21.590;2023-02-28T05:05:24;101488.15;;;-6.01;94.11
51526;BME280;37611;51.794;21.590;2023-02-28T05:09:26;101490.86;;;-5.98;94.86
51526;BME280;37611;51.794;21.590;2023-02-28T05:13:28;101495.53;;;-5.87;95.66
51526;BME280;37611;51.794;21.590;2023-02-28T05:17:30;101498.02;;;-5.76;95.88
51526;BME280;37611;51.794;21.590;2023-02-28T05:21:34;101496.23;;;-5.68;95.99
51526;BME280;37611;51.794;21.590;2023-02-28T05:25:37;101497.04;;;-5.62;96.00
51526;BME280;37611;51.794;21.590;2023-02-28T05:29:39;101504.92;;;-5.65;95.78
51526;BME280;37611;51.794;21.590;2023-02-28T05:33:45;101508.69;;;-5.69;95.52
51526;BME280;37611;51.794;21.590;2023-02-28T05:37:47;101506.54;;;-5.76;94.96
51526;BME280;37611;51.794;21.590;2023-02-28T05:41:49;101504.92;;;-5.88;94.87
51526;BME280;37611;51.794;21.590;2023-02-28T05:45:51;101504.52;;;-5.98;95.07
51526;BME280;37611;51.794;21.590;2023-02-28T05:49:52;101499.09;;;-6.04;94.67
51526;BME280;37611;51.794;21.590;2023-02-28T05:53:54;101502.68;;;-6.04;95.20
51526;BME280;37611;51.794;21.590;2023-02-28T05:57:56;101503.31;;;-5.97;95.62
51526;BME280;37611;51.794;21.590;2023-02-28T06:01:58;101508.30;;;-5.83;95.80
51526;BME280;37611;51.794;21.590;2023-02-28T06:06:00;101512.21;;;-5.59;96.11
51526;BME280;37611;51.794;21.590;2023-02-28T06:10:02;101523.84;;;-5.25;96.64
51526;BME280;37611;51.794;21.590;2023-02-28T06:14:04;101521.77;;;-4.88;96.83
51526;BME280;37611;51.794;21.590;2023-02-28T06:18:06;101515.12;;;-4.47;96.98
51526;BME280;37611;51.794;21.590;2023-02-28T06:22:08;101518.50;;;-4.06;96.61
51526;BME280;37611;51.794;21.590;2023-02-28T06:26:10;101522.75;;;-3.70;96.15
51526;BME280;37611;51.794;21.590;2023-02-28T06:30:12;101524.48;;;-3.30;95.95
51526;BME280;37611;51.794;21.590;2023-02-28T06:34:14;101526.28;;;-2.97;95.51
51526;BME280;37611;51.794;21.590;2023-02-28T06:38:16;101530.27;;;-2.72;94.94
51526;BME280;37611;51.794;21.590;2023-02-28T06:42:19;101529.10;;;-2.56;94.47
51526;BME280;37611;51.794;21.590;2023-02-28T06:46:21;101526.55;;;-2.25;94.36
51526;BME280;37611;51.794;21.590;2023-02-28T06:50:23;101530.05;;;-1.82;93.92
51526;BME280;37611;51.794;21.590;2023-02-28T06:54:25;101533.23;;;-1.29;92.57
51526;BME280;37611;51.794;21.590;2023-02-28T06:58:27;101524.85;;;-0.72;92.52
51526;BME280;37611;51.794;21.590;2023-02-28T07:02:29;101524.05;;;-0.15;92.95
51526;BME280;37611;51.794;21.590;2023-02-28T07:06:31;101523.80;;;0.26;91.62
51526;BME280;37611;51.794;21.590;2023-02-28T07:10:33;101524.14;;;0.63;90.03
51526;BME280;37611;51.794;21.590;2023-02-28T07:14:36;101524.65;;;1.04;89.35
51526;BME280;37611;51.794;21.590;2023-02-28T07:18:38;101526.23;;;1.32;87.31
51526;BME280;37611;51.794;21.590;2023-02-28T07:22:40;101526.02;;;1.48;86.96
51526;BME280;37611;51.794;21.590;2023-02-28T07:26:43;101523.54;;;1.54;86.37
51526;BME280;37611;51.794;21.590;2023-02-28T07:30:45;101529.88;;;1.64;85.85
51526;BME280;37611;51.794;21.590;2023-02-28T07:34:47;101530.44;;;1.59;83.66
51526;BME280;37611;51.794;21.590;2023-02-28T07:38:49;101523.49;;;1.64;83.87
51526;BME280;37611;51.794;21.590;2023-02-28T07:42:51;101525.29;;;1.67;81.68
51526;BME280;37611;51.794;21.590;2023-02-28T07:46:53;101525.23;;;1.73;81.19
51526;BME280;37611;51.794;21.590;2023-02-28T07:50:56;101525.99;;;2.03;82.66
51526;BME280;37611;51.794;21.590;2023-02-28T07:54:58;101527.89;;;2.25;82.36
51526;BME280;37611;51.794;21.590;2023-02-28T07:59:00;101526.50;;;2.50;81.98
51526;BME280;37611;51.794;21.590;2023-02-28T08:03:02;101525.11;;;2.71;80.20
51526;BME280;37611;51.794;21.590;2023-02-28T08:07:04;101519.80;;;2.94;79.13
51526;BME280;37611;51.794;21.590;2023-02-28T08:11:06;101518.23;;;3.15;78.12
51526;BME280;37611;51.794;21.590;2023-02-28T08:15:08;101517.69;;;3.50;78.59
51526;BME280;37611;51.794;21.590;2023-02-28T08:19:10;101526.54;;;3.54;74.51
51526;BME280;37611;51.794;21.590;2023-02-28T08:23:12;101523.14;;;3.79;74.60
51526;BME280;37611;51.794;21.590;2023-02-28T08:27:14;101522.73;;;4.03;74.19
51526;BME280;37611;51.794;21.590;2023-02-28T08:31:18;101520.33;;;4.20;73.96
51526;BME280;37611;51.794;21.590;2023-02-28T08:35:20;101523.98;;;4.49;70.03
51526;BME280;37611;51.794;21.590;2023-02-28T08:39:22;101523.39;;;4.71;70.25
51526;BME280;37611;51.794;21.590;2023-02-28T08:43:24;101527.54;;;4.60;67.18
51526;BME280;37611;51.794;21.590;2023-02-28T08:47:26;101521.09;;;4.64;66.82
51526;BME280;37611;51.794;21.590;2023-02-28T08:51:28;101519.02;;;4.61;64.91
51526;BME280;37611;51.794;21.590;2023-02-28T08:55:30;101523.06;;;4.32;63.09
51526;BME280;37611;51.794;21.590;2023-02-28T08:59:32;101523.58;;;4.64;66.21
51526;BME280;37611;51.794;21.590;2023-02-28T09:03:34;101521.97;;;4.95;63.31
51526;BME280;37611;51.794;21.590;2023-02-28T09:07:36;101525.92;;;5.29;63.00
51526;BME280;37611;51.794;21.590;2023-02-28T09:11:38;101527.70;;;5.52;61.45
51526;BME280;37611;51.794;21.590;2023-02-28T09:15:39;101523.81;;;5.85;61.12
51526;BME280;37611;51.794;21.590;2023-02-28T09:19:41;101522.25;;;5.88;60.38
51526;BME280;37611;51.794;21.590;2023-02-28T09:23:46;101520.84;;;5.88;58.61
51526;BME280;37611;51.794;21.590;2023-02-28T09:27:48;101522.19;;;6.08;59.65
51526;BME280;37611;51.794;21.590;2023-02-28T09:31:50;101523.06;;;5.63;58.14
51526;BME280;37611;51.794;21.590;2023-02-28T09:35:59;101525.11;;;5.87;59.20
51526;BME280;37611;51.794;21.590;2023-02-28T09:40:01;101526.80;;;6.10;58.98
51526;BME280;37611;51.794;21.590;2023-02-28T09:44:05;101527.43;;;5.69;56.39
51526;BME280;37611;51.794;21.590;2023-02-28T09:48:14;101525.19;;;5.43;56.81
51526;BME280;37611;51.794;21.590;2023-02-28T09:52:28;101523.89;;;5.41;57.54
51526;BME280;37611;51.794;21.590;2023-02-28T09:56:39;101527.10;;;5.43;57.08
51526;BME280;37611;51.794;21.590;2023-02-28T10:00:43;101528.48;;;5.79;58.69
51526;BME280;37611;51.794;21.590;2023-02-28T10:04:55;101527.36;;;5.96;56.72
51526;BME280;37611;51.794;21.590;2023-02-28T10:09:27;101518.65;;;6.37;58.09
51526;BME280;37611;51.794;21.590;2023-02-28T10:13:36;101519.98;;;6.26;56.55
51526;BME280;37611;51.794;21.590;2023-02-28T10:17:43;101526.16;;;6.21;55.52
51526;BME280;37611;51.794;21.590;2023-02-28T10:21:56;101523.77;;;5.83;54.37
51526;BME280;37611;51.794;21.590;2023-02-28T10:26:09;101521.77;;;5.55;54.84
51526;BME280;37611;51.794;21.590;2023-02-28T10:30:13;101526.02;;;5.63;54.60
51526;BME280;37611;51.794;21.590;2023-02-28T10:34:18;101524.90;;;5.91;54.71
51526;BME280;37611;51.794;21.590;2023-02-28T10:38:26;101526.37;;;5.99;53.67
51526;BME280;37611;51.794;21.590;2023-02-28T10:42:29;101522.79;;;6.10;54.82
51526;BME280;37611;51.794;21.590;2023-02-28T10:46:33;101523.25;;;6.20;54.17
51526;BME280;37611;51.794;21.590;2023-02-28T10:59:30;101521.14;;;5.70;53.55
51526;BME280;37611;51.794;21.590;2023-02-28T11:03:33;101520.52;;;6.10;52.78
51526;BME280;37611;51.794;21.590;2023-02-28T11:07:36;101520.86;;;6.29;52.41
51526;BME280;37611;51.794;21.590;2023-02-28T11:11:45;101514.04;;;6.48;50.98
51526;BME280;37611;51.794;21.590;2023-02-28T11:15:54;101504.23;;;6.73;51.01
51526;BME280;37611;51.794;21.590;2023-02-28T11:19:59;101495.97;;;6.97;51.31
51526;BME280;37611;51.794;21.590;2023-02-28T11:24:15;101494.32;;;7.10;51.24
51526;BME280;37611;51.794;21.590;2023-02-28T11:28:30;101480.27;;;7.09;52.57
51526;BME280;37611;51.794;21.590;2023-02-28T11:32:32;101475.95;;;6.71;51.49
51526;BME280;37611;51.794;21.590;2023-02-28T11:36:34;101470.10;;;6.67;51.05
51526;BME280;37611;51.794;21.590;2023-02-28T11:45:11;101461.54;;;6.90;50.60
51526;BME280;37611;51.794;21.590;2023-02-28T11:49:47;101460.27;;;6.89;51.03
51526;BME280;37611;51.794;21.590;2023-02-28T11:54:24;101454.70;;;6.71;50.69
51526;BME280;37611;51.794;21.590;2023-02-28T12:20:54;101415.48;;;6.84;50.86
51526;BME280;37611;51.794;21.590;2023-02-28T12:29:33;101403.47;;;7.28;49.46
51526;BME280;37611;51.794;21.590;2023-02-28T12:33:40;101398.05;;;7.29;49.25
51526;BME280;37611;51.794;21.590;2023-02-28T12:37:47;101398.52;;;7.38;50.82
51526;BME280;37611;51.794;21.590;2023-02-28T12:41:54;101395.42;;;7.24;48.36
51526;BME280;37611;51.794;21.590;2023-02-28T12:46:07;101393.95;;;7.44;48.92
51526;BME280;37611;51.794;21.590;2023-02-28T12:50:12;101392.29;;;7.56;48.57
51526;BME280;37611;51.794;21.590;2023-02-28T12:54:40;101384.86;;;7.58;47.13
51526;BME280;37611;51.794;21.590;2023-02-28T13:03:17;101375.64;;;7.52;47.45
51526;BME280;37611;51.794;21.590;2023-02-28T13:11:52;101378.04;;;7.00;47.09
51526;BME280;37611;51.794;21.590;2023-02-28T13:20:01;101374.85;;;6.76;48.75
51526;BME280;37611;51.794;21.590;2023-02-28T13:24:04;101374.54;;;6.50;48.01
51526;BME280;37611;51.794;21.590;2023-02-28T13:28:12;101374.73;;;6.44;49.08
51526;BME280;37611;51.794;21.590;2023-02-28T13:36:25;101369.13;;;6.12;49.24
51526;BME280;37611;51.794;21.590;2023-02-28T13:40:33;101367.19;;;5.82;49.52
51526;BME280;37611;51.794;21.590;2023-02-28T13:45:19;101357.40;;;5.68;49.30
51526;BME280;37611;51.794;21.590;2023-02-28T13:49:29;101354.35;;;5.48;49.64
51526;BME280;37611;51.794;21.590;2023-02-28T13:53:49;101348.82;;;5.25;49.57
51526;BME280;37611;51.794;21.590;2023-02-28T14:06:51;101331.48;;;4.44;50.79
51526;BME280;37611;51.794;21.590;2023-02-28T14:11:06;101326.89;;;4.19;51.35
51526;BME280;37611;51.794;21.590;2023-02-28T14:19:30;101326.61;;;3.87;52.83
51526;BME280;37611;51.794;21.590;2023-02-28T14:32:28;101310.83;;;3.63;53.10
51526;BME280;37611;51.794;21.590;2023-02-28T14:36:39;101309.36;;;3.39;54.12
51526;BME280;37611;51.794;21.590;2023-02-28T14:40:42;101309.96;;;3.34;54.22
51526;BME280;37611;51.794;21.590;2023-02-28T14:44:54;101304.71;;;3.24;54.11
51526;BME280;37611;51.794;21.590;2023-02-28T14:48:58;101302.63;;;3.07;54.96
51526;BME280;37611;51.794;21.590;2023-02-28T14:53:00;101302.47;;;2.99;55.04
51526;BME280;37611;51.794;21.590;2023-02-28T14:57:03;101300.23;;;2.87;55.13
51526;BME280;37611;51.794;21.590;2023-02-28T15:01:10;101294.89;;;2.79;55.47
51526;BME280;37611;51.794;21.590;2023-02-28T15:09:16;101292.48;;;2.56;55.98
51526;BME280;37611;51.794;21.590;2023-02-28T15:13:18;101291.31;;;2.43;56.33
51526;BME280;37611;51.794;21.590;2023-02-28T15:17:23;101289.17;;;2.33;56.83
51526;BME280;37611;51.794;21.590;2023-02-28T15:21:30;101287.73;;;2.27;57.72
51526;BME280;37611;51.794;21.590;2023-02-28T15:25:32;101281.19;;;2.27;58.61
51526;BME280;37611;51.794;21.590;2023-02-28T15:29:48;101281.59;;;2.21;58.12
51526;BME280;37611;51.794;21.590;2023-02-28T15:33:57;101286.98;;;2.12;58.93
51526;BME280;37611;51.794;21.590;2023-02-28T15:42:18;101290.08;;;1.92;59.27
51526;BME280;37611;51.794;21.590;2023-02-28T15:46:20;101295.99;;;1.79;59.75
51526;BME280;37611;51.794;21.590;2023-02-28T15:50:22;101298.05;;;1.67;59.59
51526;BME280;37611;51.794;21.590;2023-02-28T15:54:31;101294.30;;;1.53;60.25
51526;BME280;37611;51.794;21.590;2023-02-28T15:58:35;101294.85;;;1.40;60.43
51526;BME280;37611;51.794;21.590;2023-02-28T16:02:39;101297.86;;;1.25;60.83
51526;BME280;37611;51.794;21.590;2023-02-28T16:06:42;101295.29;;;1.12;61.23
51526;BME280;37611;51.794;21.590;2023-02-28T16:10:44;101295.58;;;0.99;61.86
51526;BME280;37611;51.794;21.590;2023-02-28T16:14:48;101303.35;;;0.90;63.71
51526;BME280;37611;51.794;21.590;2023-02-28T16:18:52;101311.14;;;0.81;64.09
51526;BME280;37611;51.794;21.590;2023-02-28T16:22:55;101308.59;;;0.70;64.68
51526;BME280;37611;51.794;21.590;2023-02-28T16:26:57;101314.92;;;0.57;64.80
51526;BME280;37611;51.794;21.590;2023-02-28T16:31:01;101312.05;;;0.46;65.47
51526;BME280;37611;51.794;21.590;2023-02-28T16:35:09;101316.14;;;0.33;65.89
51526;BME280;37611;51.794;21.590;2023-02-28T16:39:11;101314.99;;;0.17;66.86
51526;BME280;37611;51.794;21.590;2023-02-28T16:43:17;101318.58;;;0.02;67.26
51526;BME280;37611;51.794;21.590;2023-02-28T16:47:21;101319.34;;;-0.10;67.64
51526;BME280;37611;51.794;21.590;2023-02-28T16:51:23;101327.88;;;-0.23;69.09
51526;BME280;37611;51.794;21.590;2023-02-28T16:55:26;101320.77;;;-0.38;69.66
51526;BME280;37611;51.794;21.590;2023-02-28T16:59:28;101316.50;;;-0.54;70.85
51526;BME280;37611;51.794;21.590;2023-02-28T17:03:30;101319.45;;;-0.71;73.53
51526;BME280;37611;51.794;21.590;2023-02-28T17:07:32;101322.11;;;-0.85;72.27
51526;BME280;37611;51.794;21.590;2023-02-28T17:11:34;101328.23;;;-0.94;71.47
51526;BME280;37611;51.794;21.590;2023-02-28T17:15:37;101328.02;;;-1.05;71.49
51526;BME280;37611;51.794;21.590;2023-02-28T17:19:39;101321.42;;;-1.20;69.62
51526;BME280;37611;51.794;21.590;2023-02-28T17:23:44;101317.73;;;-1.40;68.59
51526;BME280;37611;51.794;21.590;2023-02-28T17:27:46;101320.66;;;-1.60;68.37
51526;BME280;37611;51.794;21.590;2023-02-28T17:31:48;101320.57;;;-1.75;69.16
51526;BME280;37611;51.794;21.590;2023-02-28T17:35:50;101314.61;;;-1.89;69.91
51526;BME280;37611;51.794;21.590;2023-02-28T17:39:52;101319.08;;;-1.97;71.69
51526;BME280;37611;51.794;21.590;2023-02-28T17:43:54;101327.85;;;-1.97;72.50
51526;BME280;37611;51.794;21.590;2023-02-28T17:47:57;101335.63;;;-1.99;72.18
51526;BME280;37611;51.794;21.590;2023-02-28T17:51:59;101337.58;;;-1.95;72.46
51526;BME280;37611;51.794;21.590;2023-02-28T17:56:01;101338.09;;;-1.88;73.77
51526;BME280;37611;51.794;21.590;2023-02-28T18:00:03;101340.41;;;-1.79;74.44
51526;BME280;37611;51.794;21.590;2023-02-28T18:04:08;101336.73;;;-1.69;75.74
51526;BME280;37611;51.794;21.590;2023-02-28T18:08:11;101339.36;;;-1.65;74.64
51526;BME280;37611;51.794;21.590;2023-02-28T18:12:14;101333.34;;;-1.71;73.92
51526;BME280;37611;51.794;21.590;2023-02-28T18:16:16;101337.86;;;-1.86;73.19
51526;BME280;37611;51.794;21.590;2023-02-28T18:20:18;101335.11;;;-1.99;75.38
51526;BME280;37611;51.794;21.590;2023-02-28T18:24:22;101324.52;;;-2.01;75.03
51526;BME280;37611;51.794;21.590;2023-02-28T18:28:25;101315.11;;;-2.16;73.37
51526;BME280;37611;51.794;21.590;2023-02-28T18:32:28;101312.07;;;-2.39;74.31
51526;BME280;37611;51.794;21.590;2023-02-28T18:36:30;101317.14;;;-2.49;75.90
51526;BME280;37611;51.794;21.590;2023-02-28T18:40:32;101320.23;;;-2.50;76.92
51526;BME280;37611;51.794;21.590;2023-02-28T18:44:36;101320.09;;;-2.51;77.06
51526;BME280;37611;51.794;21.590;2023-02-28T18:48:38;101313.96;;;-2.53;77.57
51526;BME280;37611;51.794;21.590;2023-02-28T18:52:40;101313.12;;;-2.53;78.10
51526;BME280;37611;51.794;21.590;2023-02-28T18:56:42;101307.67;;;-2.55;77.74
51526;BME280;37611;51.794;21.590;2023-02-28T19:00:44;101307.69;;;-2.62;77.49
51526;BME280;37611;51.794;21.590;2023-02-28T19:04:47;101308.10;;;-2.66;77.40
51526;BME280;37611;51.794;21.590;2023-02-28T19:08:54;101303.27;;;-2.64;77.28
51526;BME280;37611;51.794;21.590;2023-02-28T19:12:56;101299.44;;;-2.69;78.32
51526;BME280;37611;51.794;21.590;2023-02-28T19:16:57;101298.21;;;-2.76;78.86
51526;BME280;37611;51.794;21.590;2023-02-28T19:20:59;101288.83;;;-2.92;78.80
51526;BME280;37611;51.794;21.590;2023-02-28T19:25:03;101285.99;;;-2.96;79.86
51526;BME280;37611;51.794;21.590;2023-02-28T19:29:05;101284.02;;;-2.92;81.31
51526;BME280;37611;51.794;21.590;2023-02-28T19:33:07;101279.56;;;-2.91;79.60
51526;BME280;37611;51.794;21.590;2023-02-28T19:37:10;101283.05;;;-3.03;79.58
51526;BME280;37611;51.794;21.590;2023-02-28T19:41:13;101282.73;;;-3.11;78.93
51526;BME280;37611;51.794;21.590;2023-02-28T19:45:15;101287.23;;;-3.21;80.28
51526;BME280;37611;51.794;21.590;2023-02-28T19:49:17;101298.66;;;-3.27;81.33
51526;BME280;37611;51.794;21.590;2023-02-28T19:53:19;101306.05;;;-3.28;81.36
51526;BME280;37611;51.794;21.590;2023-02-28T19:57:20;101307.55;;;-3.25;81.34
51526;BME280;37611;51.794;21.590;2023-02-28T20:01:22;101307.52;;;-3.24;80.00
51526;BME280;37611;51.794;21.590;2023-02-28T20:05:24;101317.28;;;-3.24;81.35
51526;BME280;37611;51.794;21.590;2023-02-28T20:09:29;101320.25;;;-3.18;81.88
51526;BME280;37611;51.794;21.590;2023-02-28T20:13:32;101320.21;;;-3.09;83.24
51526;BME280;37611;51.794;21.590;2023-02-28T20:17:34;101324.03;;;-3.03;83.16
51526;BME280;37611;51.794;21.590;2023-02-28T20:21:36;101321.64;;;-3.03;83.54
51526;BME280;37611;51.794;21.590;2023-02-28T20:25:39;101323.04;;;-3.05;82.94
51526;BME280;37611;51.794;21.590;2023-02-28T20:29:41;101314.69;;;-3.07;83.50
51526;BME280;37611;51.794;21.590;2023-02-28T20:33:43;101315.97;;;-3.11;83.49
51526;BME280;37611;51.794;21.590;2023-02-28T20:37:45;101306.73;;;-3.19;84.56
51526;BME280;37611;51.794;21.590;2023-02-28T20:41:47;101309.22;;;-3.32;83.96
51526;BME280;37611;51.794;21.590;2023-02-28T20:45:50;101303.42;;;-3.42;83.35
51526;BME280;37611;51.794;21.590;2023-02-28T20:49:52;101306.69;;;-3.51;83.68
51526;BME280;37611;51.794;21.590;2023-02-28T20:53:54;101302.90;;;-3.58;83.11
51526;BME280;37611;51.794;21.590;2023-02-28T20:57:56;101297.95;;;-3.59;83.49
51526;BME280;37611;51.794;21.590;2023-02-28T21:01:58;101299.73;;;-3.54;84.29
51526;BME280;37611;51.794;21.590;2023-02-28T21:06:02;101301.67;;;-3.48;84.57
51526;BME280;37611;51.794;21.590;2023-02-28T21:10:04;101295.27;;;-3.46;85.27
51526;BME280;37611;51.794;21.590;2023-02-28T21:14:10;101293.55;;;-3.53;84.98
51526;BME280;37611;51.794;21.590;2023-02-28T21:18:13;101290.23;;;-3.75;84.99
51526;BME280;37611;51.794;21.590;2023-02-28T21:22:16;101297.38;;;-4.01;85.12
51526;BME280;37611;51.794;21.590;2023-02-28T21:26:20;101297.69;;;-4.08;85.91
51526;BME280;37611;51.794;21.590;2023-02-28T21:30:23;101296.80;;;-4.06;85.66
51526;BME280;37611;51.794;21.590;2023-02-28T21:34:24;101301.95;;;-4.07;86.17
51526;BME280;37611;51.794;21.590;2023-02-28T21:38:29;101301.58;;;-4.07;86.57
51526;BME280;37611;51.794;21.590;2023-02-28T21:42:30;101299.70;;;-4.07;86.50
51526;BME280;37611;51.794;21.590;2023-02-28T21:46:32;101303.18;;;-4.10;86.25
51526;BME280;37611;51.794;21.590;2023-02-28T21:50:34;101299.87;;;-4.15;85.05
51526;BME280;37611;51.794;21.590;2023-02-28T21:54:36;101290.66;;;-4.27;85.42
51526;BME280;37611;51.794;21.590;2023-02-28T21:58:38;101299.42;;;-4.40;86.07
51526;BME280;37611;51.794;21.590;2023-02-28T22:02:40;101299.70;;;-4.36;86.75
51526;BME280;37611;51.794;21.590;2023-02-28T22:06:44;101298.79;;;-4.32;86.76
51526;BME280;37611;51.794;21.590;2023-02-28T22:10:45;101298.30;;;-4.34;87.41
51526;BME280;37611;51.794;21.590;2023-02-28T22:14:47;101284.08;;;-4.32;87.04
51526;BME280;37611;51.794;21.590;2023-02-28T22:18:49;101289.00;;;-4.40;86.63
51526;BME280;37611;51.794;21.590;2023-02-28T22:22:51;101289.10;;;-4.57;86.27
51526;BME280;37611;51.794;21.590;2023-02-28T22:26:53;101293.94;;;-4.72;87.53
51526;BME280;37611;51.794;21.590;2023-02-28T22:30:56;101293.19;;;-4.78;87.05
51526;BME280;37611;51.794;21.590;2023-02-28T22:34:58;101302.17;;;-4.85;87.61
51526;BME280;37611;51.794;21.590;2023-02-28T22:39:00;101304.06;;;-4.85;88.70
51526;BME280;37611;51.794;21.590;2023-02-28T22:43:03;101307.48;;;-4.85;87.97
51526;BME280;37611;51.794;21.590;2023-02-28T22:47:05;101313.14;;;-4.86;87.77
51526;BME280;37611;51.794;21.590;2023-02-28T23:53:54;101301.58;;;-5.15;90.64
51526;BME280;37611;51.794;21.590;2023-02-28T23:57:57;101296.89;;;-5.22;90.47
